Portada
METAR-TAF:

METAR-TAF

Aeropuertos :

El Aaiún, Marruecos

Aeropuerto Internacional Hassan I

latitud: 27-10N, longitud: 013-12-59W, altitud: 6 m

Observación

El informe se hizo hace 53 minutos, a las 10:00 UTC
Viento 18 kt del norte-noreste
Temperatura 23°C
Humedad 69%
Presión 1015 hPa
Visibilidad: 8000 m
Cielo cubierto a una altura de 2000 ft

METAR: GMML 181000Z 03018KT 8000 OVC020 23/17 Q1015 NOSIG

Hora: 11:53 (10:53 UTC)

Pronóstico

El informe se hizo hace 5 horas y 53 minutos, a las 05:00 UTC
Pronóstico válido del 18 a las 06 UTC al 19 a las 12 UTC
Viento 16 kt del noreste
Visibilidad: 8000 m
Cielo cubierto a una altura de 1800 ft
Probabilidad 40% :
Temporalmente
del 18 a las 12 UTC al 18 a las 18 UTC
Visibilidad: 4000 m
arena
Evolucionando progresivamente
del 18 a las 13 UTC al 18 a las 15 UTC
Nubes dispersas a una altura de 1300 ft

TAF: GMML 180500Z 1806/1912 04016KT 8000 OVC018 PROB40 TEMPO 1812/1818 4000 SA BECMG 1813/1815 SCT013

Observaciones y pronósticos meteorológicos de más de 4000 aeropuertos (mensajes METAR y TAF).

Los puntos amarillos y rojos representan las estaciones disponibles.

Ponga el ratón en el punto deseado para ver el nombre de la estación.

Haga clic para ver las observaciones y los pronósticos meteorológicos.

Para cambiar el mapa : haga clic en los botones verdes con una cruz de color negro para hacer un zoom, en el botón verde con un guión para alejar o en las flechas verdes para mapas adyacentes.


METAR-TAF: